Time;durP1;ratioP1;P1;durP2;ratioP2;P2;SDS_P1;SDS_P2;PMS_P1;PMS_P2;Temp;Humidity;BMP_temperature;BMP_pressure;BME280_temperature;BME280_humidity;BME280_pressure;Samples;Min_cycle;Max_cycle;Signal;HPM_P1;HPM_P2
2022/09/08 00:11:43;;;;;;;;;;;;;;;12.86;89.33;100113.28;5668056;23;1683;-64
2022/09/08 00:14:09;;;;;;;;;;;;;;;12.87;89.87;100116.84;5013306;28;897;-64
2022/09/08 00:16:38;;;;;;;;;;;;;;;12.83;90.59;100116.88;4995616;28;1190;-64
2022/09/08 00:19:05;;;;;;;;;;;;;;;12.73;90.83;100117.75;5013096;28;919;-64
2022/09/08 00:21:32;;;;;;;;;;;;;;;12.67;90.99;100122.16;5013055;28;1969;-64
2022/09/08 00:23:59;;;;;;;;;;;;;;;12.61;91.56;100121.03;5013118;28;815;-64
2022/09/08 00:26:25;;;;;;;;;;;;;;;12.53;91.75;100114.75;5013041;28;944;-63
2022/09/08 00:28:52;;;;;;;;;;;;;;;12.44;92.01;100115.22;5013024;28;870;-64
2022/09/08 00:31:18;;;;;;;;;;;;;;;12.38;92.61;100116.06;5012996;28;830;-64
2022/09/08 00:33:45;;;;;;;;;;;;;;;12.30;92.76;100109.00;5012910;28;1008;-64
2022/09/08 00:36:14;;;;;;;;;;;;;;;12.23;92.98;100116.16;5012902;28;810;-64
2022/09/08 00:38:41;;;;;;;;;;;;;;;12.16;93.46;100112.63;5012856;28;838;-63
2022/09/08 00:41:11;;;;;;;;;;;;;;;12.11;93.74;100113.88;5012080;28;1886;-64
2022/09/08 00:43:39;;;;;;;;;;;;;;;12.20;94.02;100099.56;5012796;28;830;-64
2022/09/08 00:46:26;;;;;;;;;;;;;;;12.31;93.31;100110.56;5012698;28;803;-64
2022/09/08 00:49:16;;;;;;;;;;;;;;;12.30;93.75;100107.00;5012092;28;1470;-65
2022/09/08 00:51:45;;;;;;;;;;;;;;;12.38;93.86;100111.31;5012591;28;909;-64
2022/09/08 00:54:13;;;;;;;;;;;;;;;12.39;93.44;100110.09;5012534;28;835;-64
2022/09/08 00:56:40;;;;;;;;;;;;;;;12.40;93.67;100105.38;5012466;28;851;-65
2022/09/08 00:59:07;;;;;;;;;;;;;;;12.41;93.50;100104.94;4994828;28;1181;-64
2022/09/08 01:01:34;;;;;;;;;;;;;;;12.44;93.52;100108.91;5012394;28;1945;-64
2022/09/08 01:04:04;;;;;;;;;;;;;;;12.44;93.76;100114.44;5012282;28;859;-64
2022/09/08 01:15:11;;;;;;;;;;;;;;;12.42;93.68;100111.28;5012278;28;695;-64
2022/09/08 01:17:38;;;;;;;;;;;;;;;12.41;93.98;100115.25;5012158;28;897;-64
2022/09/08 01:20:07;;;;;;;;;;;;;;;12.46;94.01;100120.38;5012122;28;909;-65
2022/09/08 01:22:46;;;;;;;;;;;;;;;12.49;94.29;100111.22;5012039;28;1902;-64
2022/09/08 01:25:13;;;;;;;;;;;;;;;12.50;94.38;100112.78;5012065;28;854;-64
2022/09/08 01:27:40;;;;;;;;;;;;;;;12.46;94.46;100109.28;5012002;28;811;-64
2022/09/08 01:30:10;;;;;;;;;;;;;;;12.46;94.42;100109.28;5010722;28;1276;-64
2022/09/08 01:32:40;;;;;;;;;;;;;;;12.49;94.56;100102.13;5012028;28;866;-64
2022/09/08 01:35:07;;;;;;;;;;;;;;;12.48;94.75;100106.09;4994224;28;1572;-64
2022/09/08 01:37:33;;;;;;;;;;;;;;;12.46;95.23;100103.75;5012213;28;814;-64
2022/09/08 01:40:00;;;;;;;;;;;;;;;12.45;94.92;100105.69;5011769;28;816;-64
2022/09/08 01:42:26;;;;;;;;;;;;;;;12.40;95.21;100099.81;5011868;28;1906;-64
2022/09/08 01:44:53;;;;;;;;;;;;;;;12.35;95.48;100100.25;5012003;28;858;-64
2022/09/08 01:47:19;;;;;;;;;;;;;;;12.36;95.43;100104.59;5011798;28;830;-64
2022/09/08 01:49:46;;;;;;;;;;;;;;;12.39;95.75;100104.56;5011777;28;881;-64
2022/09/08 01:52:12;;;;;;;;;;;;;;;12.39;95.68;100106.56;5011802;28;819;-63
2022/09/08 01:54:38;;;;;;;;;;;;;;;12.35;95.55;100101.03;5015967;28;823;-63
2022/09/08 01:57:05;;;;;;;;;;;;;;;12.30;95.87;100103.47;5015749;28;842;-63
2022/09/08 01:59:32;;;;;;;;;;;;;;;12.23;96.16;100107.06;4998199;28;1327;-64
2022/09/08 02:01:58;;;;;;;;;;;;;;;12.21;96.46;100090.06;5015657;28;1886;-64
2022/09/08 02:04:25;;;;;;;;;;;;;;;12.23;96.43;100096.00;5015712;28;882;-64
2022/09/08 02:06:52;;;;;;;;;;;;;;;12.26;96.46;100092.38;5015642;28;846;-64
2022/09/08 02:09:18;;;;;;;;;;;;;;;12.27;96.43;100093.97;5015585;28;830;-64
2022/09/08 02:11:48;;;;;;;;;;;;;;;12.29;96.45;100090.78;5015545;28;1207;-64
2022/09/08 02:14:14;;;;;;;;;;;;;;;12.25;96.37;100090.81;5015534;28;865;-64
2022/09/08 02:16:42;;;;;;;;;;;;;;;12.21;96.64;100085.31;5015525;28;807;-64
2022/09/08 02:19:08;;;;;;;;;;;;;;;12.20;96.75;100086.47;5015386;28;834;-64
2022/09/08 02:21:35;;;;;;;;;;;;;;;12.20;96.66;100085.69;5015369;28;1902;-64
2022/09/08 02:24:03;;;;;;;;;;;;;;;12.18;96.78;100091.66;5015333;28;842;-64
2022/09/08 02:26:30;;;;;;;;;;;;;;;12.17;96.88;100083.75;5015311;28;803;-64
2022/09/08 02:28:57;;;;;;;;;;;;;;;12.14;97.02;100081.78;5015203;28;819;-63
2022/09/08 02:31:25;;;;;;;;;;;;;;;12.14;97.20;100073.47;5015253;28;807;-64
2022/09/08 02:33:52;;;;;;;;;;;;;;;12.14;97.21;100076.22;5015135;28;819;-63
2022/09/08 02:36:19;;;;;;;;;;;;;;;12.15;97.27;100075.06;5015147;28;806;-64
2022/09/08 02:38:49;;;;;;;;;;;;;;;12.13;96.96;100066.38;5014904;28;882;-64
2022/09/08 02:41:16;;;;;;;;;;;;;;;12.10;97.23;100070.75;5014980;28;1942;-64
2022/09/08 02:43:42;;;;;;;;;;;;;;;12.06;97.33;100075.50;5014947;28;851;-64
2022/09/08 02:46:09;;;;;;;;;;;;;;;12.01;97.18;100068.44;5014905;28;878;-64
2022/09/08 02:48:35;;;;;;;;;;;;;;;12.01;97.56;100068.44;5014903;28;850;-64
2022/09/08 02:51:03;;;;;;;;;;;;;;;12.03;97.89;100070.78;4997135;28;1204;-63
2022/09/08 02:53:30;;;;;;;;;;;;;;;12.02;97.87;100077.53;5014807;28;807;-64
2022/09/08 02:55:57;;;;;;;;;;;;;;;12.00;97.57;100072.38;5014735;28;840;-64
2022/09/08 02:58:24;;;;;;;;;;;;;;;11.97;97.98;100073.19;5014718;28;850;-63
2022/09/08 03:00:51;;;;;;;;;;;;;;;11.95;98.04;100072.81;5014652;28;866;-64
2022/09/08 03:03:18;;;;;;;;;;;;;;;11.89;97.99;100077.19;5014075;28;1890;-64
2022/09/08 03:05:45;;;;;;;;;;;;;;;11.87;97.98;100074.00;5014787;28;831;-64
2022/09/08 03:08:12;;;;;;;;;;;;;;;11.84;98.21;100072.03;5014400;28;844;-64
2022/09/08 03:10:38;;;;;;;;;;;;;;;11.82;98.20;100069.69;5014495;28;1022;-63
2022/09/08 03:13:05;;;;;;;;;;;;;;;11.82;98.54;100068.88;5014176;28;1223;-64
2022/09/08 03:15:32;;;;;;;;;;;;;;;11.82;98.85;100079.97;5014521;28;885;-63
2022/09/08 03:17:59;;;;;;;;;;;;;;;11.79;98.48;100069.72;5014310;28;807;-64
2022/09/08 03:20:26;;;;;;;;;;;;;;;11.74;98.55;100067.38;4996659;28;1305;-64
2022/09/08 03:22:53;;;;;;;;;;;;;;;11.70;98.66;100063.84;5012863;28;1914;-64
2022/09/08 03:25:19;;;;;;;;;;;;;;;11.62;98.53;100065.84;5014231;28;815;-64
2022/09/08 03:27:46;;;;;;;;;;;;;;;11.51;99.15;100067.88;5014102;28;885;-64
2022/09/08 03:30:14;;;;;;;;;;;;;;;11.43;99.14;100065.13;5014127;28;818;-64
2022/09/08 03:32:42;;;;;;;;;;;;;;;11.42;99.27;100065.53;5014063;28;830;-64
2022/09/08 03:35:09;;;;;;;;;;;;;;;11.40;99.54;100070.69;5013996;28;974;-63
2022/09/08 03:37:38;;;;;;;;;;;;;;;11.37;99.87;100063.19;5013898;28;807;-64
2022/09/08 03:40:09;;;;;;;;;;;;;;;11.31;100.00;100071.13;5014000;28;810;-63
2022/09/08 03:42:36;;;;;;;;;;;;;;;11.27;100.00;100066.78;5013852;28;1890;-63
2022/09/08 03:45:04;;;;;;;;;;;;;;;11.22;100.00;100076.28;5013812;28;811;-63
2022/09/08 03:47:30;;;;;;;;;;;;;;;11.20;100.00;100070.34;5013801;28;811;-63
2022/09/08 03:49:58;;;;;;;;;;;;;;;11.21;100.00;100078.25;5013712;28;814;-64
2022/09/08 03:52:25;;;;;;;;;;;;;;;11.23;100.00;100075.88;5013696;28;823;-63
2022/09/08 03:54:52;;;;;;;;;;;;;;;11.20;100.00;100076.69;5013724;28;846;-63
2022/09/08 03:57:26;;;;;;;;;;;;;;;11.20;100.00;100073.13;4996032;28;1186;-63
2022/09/08 03:59:55;;;;;;;;;;;;;;;11.17;100.00;100068.41;5013832;28;786;-64
2022/09/08 04:02:22;;;;;;;;;;;;;;;11.24;100.00;100073.91;5013440;28;1866;-63
2022/09/08 04:04:50;;;;;;;;;;;;;;;11.32;100.00;100075.44;5013552;28;869;-63
2022/09/08 04:07:18;;;;;;;;;;;;;;;11.34;100.00;100080.59;5013354;28;818;-64
2022/09/08 04:09:45;;;;;;;;;;;;;;;11.37;100.00;100088.91;5013355;28;791;-63
2022/09/08 04:12:11;;;;;;;;;;;;;;;11.44;100.00;100082.53;5013307;28;1219;-63
2022/09/08 04:14:38;;;;;;;;;;;;;;;11.52;100.00;100083.28;5013361;28;861;-63
2022/09/08 04:17:05;;;;;;;;;;;;;;;11.60;100.00;100079.28;5012641;28;1021;-64
2022/09/08 04:19:32;;;;;;;;;;;;;;;11.65;100.00;100087.19;5013151;28;870;-63
2022/09/08 04:21:58;;;;;;;;;;;;;;;11.70;100.00;100083.22;5013098;28;1918;-64
2022/09/08 04:24:25;;;;;;;;;;;;;;;11.78;100.00;100085.53;5013155;28;890;-63
2022/09/08 04:26:52;;;;;;;;;;;;;;;11.84;100.00;100089.47;5013208;28;858;-63
2022/09/08 04:29:19;;;;;;;;;;;;;;;11.88;100.00;100086.69;5013109;28;814;-63
2022/09/08 04:31:47;;;;;;;;;;;;;;;11.98;100.00;100094.16;4995331;28;1487;-64
2022/09/08 04:34:14;;;;;;;;;;;;;;;12.14;100.00;100098.41;5012905;28;831;-63
2022/09/08 04:36:42;;;;;;;;;;;;;;;12.32;100.00;100101.06;5012797;28;831;-63
2022/09/08 04:39:09;;;;;;;;;;;;;;;12.53;100.00;100102.91;5012872;28;803;-63
2022/09/08 04:41:36;;;;;;;;;;;;;;;12.76;99.69;100107.81;5012710;28;1886;-64
2022/09/08 04:44:03;;;;;;;;;;;;;;;13.00;99.30;100106.03;5012747;28;838;-63
2022/09/08 04:46:31;;;;;;;;;;;;;;;13.18;98.38;100108.63;5013020;28;849;-63
2022/09/08 04:48:58;;;;;;;;;;;;;;;13.34;97.51;100106.09;4995001;28;1419;-63
2022/09/08 04:51:25;;;;;;;;;;;;;;;13.51;97.08;100103.53;5012675;28;866;-63
2022/09/08 04:53:52;;;;;;;;;;;;;;;13.67;96.54;100110.03;5012744;28;806;-63
2022/09/08 04:56:20;;;;;;;;;;;;;;;13.86;96.15;100107.81;5012613;28;920;-63
2022/09/08 04:58:47;;;;;;;;;;;;;;;14.02;95.18;100102.44;4994818;28;1280;-63
2022/09/08 05:01:18;;;;;;;;;;;;;;;14.20;94.73;100104.97;4994773;28;1953;-63
2022/09/08 05:03:51;;;;;;;;;;;;;;;14.34;93.94;100111.50;5012287;28;1077;-63
2022/09/08 05:06:17;;;;;;;;;;;;;;;14.43;92.87;100112.56;5012290;28;854;-63
2022/09/08 05:08:45;;;;;;;;;;;;;;;14.54;92.00;100109.59;5012343;28;842;-63
2022/09/08 05:11:12;;;;;;;;;;;;;;;14.66;91.12;100111.03;5012440;28;928;-63
2022/09/08 05:13:39;;;;;;;;;;;;;;;14.80;90.44;100113.56;5012058;28;1289;-64
2022/09/08 05:16:16;;;;;;;;;;;;;;;14.98;89.98;100106.88;5012221;28;850;-64
2022/09/08 05:18:53;;;;;;;;;;;;;;;15.23;88.88;100112.00;5012152;28;850;-64
2022/09/08 05:21:20;;;;;;;;;;;;;;;15.47;88.07;100112.75;5012083;28;1997;-64
2022/09/08 05:23:50;;;;;;;;;;;;;;;15.74;87.00;100120.19;5012109;28;830;-64
2022/09/08 05:26:18;;;;;;;;;;;;;;;15.99;86.25;100119.66;5012169;28;795;-64
2022/09/08 05:28:45;;;;;;;;;;;;;;;16.26;85.14;100111.09;5012288;28;889;-64
2022/09/08 05:31:16;;;;;;;;;;;;;;;16.51;84.30;100116.03;5012150;28;831;-64
2022/09/08 05:33:43;;;;;;;;;;;;;;;16.77;83.04;100116.22;5011997;28;814;-64
2022/09/08 05:36:14;;;;;;;;;;;;;;;17.02;82.05;100116.38;5011791;28;889;-63
2022/09/08 05:38:41;;;;;;;;;;;;;;;17.30;80.97;100112.06;5012268;28;835;-64
2022/09/08 05:41:09;;;;;;;;;;;;;;;17.59;80.30;100108.44;5011786;28;1903;-64
2022/09/08 05:43:36;;;;;;;;;;;;;;;17.92;78.97;100114.69;5011859;28;861;-64
2022/09/08 05:46:02;;;;;;;;;;;;;;;18.22;77.84;100109.78;5011768;28;829;-64
2022/09/08 05:48:30;;;;;;;;;;;;;;;18.48;76.63;100110.53;5012029;28;846;-64
2022/09/08 05:50:57;;;;;;;;;;;;;;;18.71;75.10;100108.59;4994219;28;1173;-64
2022/09/08 05:53:23;;;;;;;;;;;;;;;18.95;73.68;100112.59;5011735;28;831;-64
2022/09/08 05:55:59;;;;;;;;;;;;;;;19.23;72.40;100104.44;5011778;28;787;-63
2022/09/08 05:58:26;;;;;;;;;;;;;;;19.47;70.69;100106.78;5011731;28;850;-63
2022/09/08 06:00:54;;;;;;;;;;;;;;;19.69;69.76;100110.34;5011693;28;839;-64
2022/09/08 06:03:20;;;;;;;;;;;;;;;19.83;68.17;100119.50;5011523;28;1882;-63
2022/09/08 06:05:47;;;;;;;;;;;;;;;19.92;67.32;100111.91;5011615;28;814;-64
2022/09/08 06:08:14;;;;;;;;;;;;;;;20.17;66.17;100113.75;5011635;28;862;-63
2022/09/08 06:10:40;;;;;;;;;;;;;;;20.36;64.60;100113.84;5011554;28;938;-64
2022/09/08 06:13:07;;;;;;;;;;;;;;;20.48;63.45;100110.09;5011447;28;1407;-62
2022/09/08 06:15:34;;;;;;;;;;;;;;;20.53;62.53;100114.34;5011502;28;1261;-61
2022/09/08 06:18:01;;;;;;;;;;;;;;;20.60;61.51;100114.84;5011514;28;858;-61
2022/09/08 06:20:28;;;;;;;;;;;;;;;20.71;60.63;100114.41;5011488;28;799;-61
2022/09/08 06:22:54;;;;;;;;;;;;;;;20.91;59.80;100114.00;5011428;28;1973;-61
2022/09/08 06:25:21;;;;;;;;;;;;;;;21.05;58.66;100120.22;5011479;28;890;-61
2022/09/08 06:27:54;;;;;;;;;;;;;;;21.27;57.53;100122.88;5011415;28;851;-61
2022/09/08 06:30:21;;;;;;;;;;;;;;;21.51;56.05;100117.44;5011568;28;811;-61
2022/09/08 06:32:50;;;;;;;;;;;;;;;21.66;55.26;100123.97;5012028;28;874;-61
2022/09/08 06:35:20;;;;;;;;;;;;;;;22.13;53.47;100127.44;5011273;28;827;-61
2022/09/08 06:37:47;;;;;;;;;;;;;;;22.71;52.09;100129.06;5011365;28;866;-61
2022/09/08 06:40:25;;;;;;;;;;;;;;;23.12;50.73;100131.47;5014493;28;854;-61
2022/09/08 06:43:07;;;;;;;;;;;;;;;23.76;49.08;100135.78;5014988;28;1947;-61
2022/09/08 06:45:40;;;;;;;;;;;;;;;24.85;45.92;100140.56;5014972;28;791;-61
2022/09/08 06:48:12;;;;;;;;;;;;;;;25.60;44.39;100141.72;5014919;28;811;-61
2022/09/08 06:51:01;;;;;;;;;;;;;;;26.38;41.96;100140.13;5015394;28;826;-61
2022/09/08 06:53:33;;;;;;;;;;;;;;;26.92;41.27;100139.41;5014725;28;1146;-61
2022/09/08 06:56:06;;;;;;;;;;;;;;;27.53;40.16;100140.94;5014886;28;794;-61
2022/09/08 06:58:32;;;;;;;;;;;;;;;28.13;39.37;100141.53;5014736;28;823;-61
2022/09/08 07:01:21;;;;;;;;;;;;;;;28.44;37.38;100131.16;5014606;28;922;-61
2022/09/08 07:04:03;;;;;;;;;;;;;;;28.52;36.94;100128.59;5014670;28;850;-61
2022/09/08 07:06:33;;;;;;;;;;;;;;;28.79;37.01;100132.66;5014551;28;818;-61
2022/09/08 07:09:13;;;;;;;;;;;;;;;29.33;35.83;100126.47;5014567;28;874;-61
2022/09/08 07:11:45;;;;;;;;;;;;;;;29.26;35.63;100127.81;5014647;28;1148;-61
2022/09/08 07:14:32;;;;;;;;;;;;;;;29.62;35.05;100133.56;5014489;28;878;-61
2022/09/08 07:17:11;;;;;;;;;;;;;;;28.95;34.78;100134.66;5014354;28;846;-60
2022/09/08 07:19:41;;;;;;;;;;;;;;;28.49;35.90;100138.94;5014316;28;886;-61
2022/09/08 07:22:16;;;;;;;;;;;;;;;27.76;37.57;100136.06;5014818;28;1918;-60
2022/09/08 07:24:44;;;;;;;;;;;;;;;27.13;38.52;100140.78;5014450;28;863;-61
2022/09/08 07:27:12;;;;;;;;;;;;;;;27.01;37.65;100142.03;5014278;28;842;-60
2022/09/08 07:29:50;;;;;;;;;;;;;;;27.23;37.91;100138.53;4996533;28;866;-60
2022/09/08 07:32:36;;;;;;;;;;;;;;;27.19;36.93;100140.81;4996783;28;1308;-60
2022/09/08 07:35:09;;;;;;;;;;;;;;;27.11;37.45;100145.44;5013943;28;971;-60
2022/09/08 07:37:38;;;;;;;;;;;;;;;27.06;37.71;100138.44;5014007;28;854;-60
2022/09/08 07:40:17;;;;;;;;;;;;;;;27.35;37.30;100139.34;5014025;28;882;-61
2022/09/08 07:43:04;;;;;;;;;;;;;;;27.55;36.42;100149.72;5013804;28;1886;-60
2022/09/08 07:45:41;;;;;;;;;;;;;;;28.28;35.61;100139.19;5013796;28;1395;-60
2022/09/08 07:48:27;;;;;;;;;;;;;;;28.68;33.57;100137.09;5013802;28;822;-60
2022/09/08 07:51:15;;;;;;;;;;;;;;;28.66;34.73;100147.44;4975097;28;1301;-60
2022/09/08 07:53:59;;;;;;;;;;;;;;;28.94;34.37;100135.97;4996036;28;1063;-60
2022/09/08 07:56:38;;;;;;;;;;;;;;;29.36;33.03;100134.00;5013858;28;1018;-60
2022/09/08 07:59:08;;;;;;;;;;;;;;;29.38;32.85;100139.13;5013673;28;811;-60
2022/09/08 08:01:54;;;;;;;;;;;;;;;29.39;32.32;100127.22;5013455;28;1890;-60
2022/09/08 08:04:26;;;;;;;;;;;;;;;29.85;32.31;100131.34;5013482;28;814;-60
2022/09/08 08:06:57;;;;;;;;;;;;;;;29.77;31.79;100130.38;5013423;28;799;-61
2022/09/08 08:09:34;;;;;;;;;;;;;;;29.44;32.17;100134.19;5013586;28;1059;-61
2022/09/08 08:12:01;;;;;;;;;;;;;;;29.35;31.94;100131.66;5013408;28;1340;-60
2022/09/08 08:14:36;;;;;;;;;;;;;;;29.39;32.17;100130.06;5013342;28;838;-60
2022/09/08 08:17:25;;;;;;;;;;;;;;;29.24;32.20;100127.56;5013265;28;845;-60
2022/09/08 08:20:11;;;;;;;;;;;;;;;29.24;31.45;100118.25;5013184;28;1157;-61
2022/09/08 08:22:49;;;;;;;;;;;;;;;29.66;31.90;100119.03;5013090;28;1915;-61
2022/09/08 08:25:28;;;;;;;;;;;;;;;29.98;31.34;100115.69;5013036;28;827;-60
2022/09/08 08:28:13;;;;;;;;;;;;;;;29.56;31.11;100124.28;5013792;28;764;-60
2022/09/08 08:31:03;;;;;;;;;;;;;;;29.54;31.11;100118.34;4995268;28;1415;-61
2022/09/08 08:33:37;;;;;;;;;;;;;;;29.72;30.13;100119.78;5007402;28;1058;-61
2022/09/08 08:36:12;;;;;;;;;;;;;;;29.77;29.88;100118.22;5013231;28;934;-61
2022/09/08 08:38:46;;;;;;;;;;;;;;;29.44;29.96;100115.03;5012912;28;815;-61
2022/09/08 08:41:21;;;;;;;;;;;;;;;29.48;30.27;100109.06;5013157;28;1867;-61
2022/09/08 08:44:17;;;;;;;;;;;;;;;29.49;31.40;100110.63;5012759;28;889;-61
2022/09/08 08:46:44;;;;;;;;;;;;;;;29.58;30.85;100107.44;4971544;28;1125;-61
2022/09/08 08:49:13;;;;;;;;;;;;;;;29.58;30.38;100104.59;4971767;28;831;-61
2022/09/08 08:51:48;;;;;;;;;;;;;;;29.47;31.08;100090.44;4971469;28;945;-61
2022/09/08 08:54:24;;;;;;;;;;;;;;;29.91;30.91;100091.41;4971587;28;795;-61
2022/09/08 08:57:13;;;;;;;;;;;;;;;30.13;30.33;100087.59;4971450;28;1056;-60
2022/09/08 08:59:52;;;;;;;;;;;;;;;29.85;30.17;100080.09;4971497;28;867;-61
2022/09/08 09:02:19;;;;;;;;;;;;;;;29.53;30.60;100074.06;4970833;28;1997;-61
2022/09/08 09:04:55;;;;;;;;;;;;;;;29.59;30.99;100077.66;4971409;28;1012;-61
2022/09/08 09:07:22;;;;;;;;;;;;;;;29.95;30.11;100071.19;4971285;28;815;-60
2022/09/08 09:09:59;;;;;;;;;;;;;;;29.83;29.09;100065.59;4971464;28;906;-61
2022/09/08 09:12:29;;;;;;;;;;;;;;;29.54;30.01;100066.31;4963556;28;1408;-61
2022/09/08 09:15:02;;;;;;;;;;;;;;;29.41;30.70;100058.38;4951903;29;800;-61
2022/09/08 09:17:37;;;;;;;;;;;;;;;29.34;30.25;100058.94;4951808;29;909;-61
2022/09/08 09:20:04;;;;;;;;;;;;;;;29.41;30.52;100047.75;4951783;29;832;-61
2022/09/08 09:22:37;;;;;;;;;;;;;;;29.23;30.17;100052.03;4945701;28;1911;-61
2022/09/08 09:25:13;;;;;;;;;;;;;;;29.10;30.56;100051.84;4992486;28;945;-61
2022/09/08 09:27:59;;;;;;;;;;;;;;;29.13;30.29;100050.03;4992347;28;866;-61
2022/09/08 09:30:34;;;;;;;;;;;;;;;29.17;30.43;100044.81;4984930;28;1218;-61
2022/09/08 09:33:27;;;;;;;;;;;;;;;29.17;31.46;100039.13;4992262;28;862;-61
2022/09/08 09:36:00;;;;;;;;;;;;;;;29.33;31.44;100023.25;4990570;28;1031;-61
2022/09/08 09:38:42;;;;;;;;;;;;;;;29.45;30.82;100036.09;4992350;28;799;-61
2022/09/08 09:44:20;;;;;;;;;;;;;;;29.47;30.29;100030.66;4990162;28;1163;-61
2022/09/08 09:46:54;;;;;;;;;;;;;;;29.14;30.35;100028.81;4992240;28;846;-61
2022/09/08 09:49:22;;;;;;;;;;;;;;;28.76;30.54;100028.47;4992206;28;823;-61
2022/09/08 09:52:07;;;;;;;;;;;;;;;28.84;31.22;100026.63;4992142;28;850;-61
2022/09/08 09:55:06;;;;;;;;;;;;;;;29.08;30.77;100023.13;4992155;28;811;-61
2022/09/08 09:57:51;;;;;;;;;;;;;;;29.26;30.44;100018.91;4970266;28;1416;-61
2022/09/08 10:00:33;;;;;;;;;;;;;;;29.11;30.09;100019.25;4992146;28;827;-61
2022/09/08 10:03:18;;;;;;;;;;;;;;;29.10;30.50;100023.38;4974487;28;1936;-61
2022/09/08 10:06:03;;;;;;;;;;;;;;;29.39;30.05;100021.13;4992063;28;870;-61
2022/09/08 10:08:45;;;;;;;;;;;;;;;29.50;30.03;100018.97;4991923;28;877;-61
2022/09/08 10:11:30;;;;;;;;;;;;;;;29.77;30.12;100021.38;4992519;28;953;-61
2022/09/08 10:14:22;;;;;;;;;;;;;;;29.74;30.40;100008.94;5012701;28;933;-61
2022/09/08 10:16:58;;;;;;;;;;;;;;;29.94;30.14;100016.28;5015543;28;843;-62
2022/09/08 10:19:37;;;;;;;;;;;;;;;30.14;30.16;100012.19;5015371;28;791;-61
2022/09/08 10:22:17;;;;;;;;;;;;;;;30.13;30.17;100013.50;5015305;28;1906;-61
2022/09/08 10:25:05;;;;;;;;;;;;;;;30.13;29.40;100010.66;5015361;28;807;-62
2022/09/08 10:27:54;;;;;;;;;;;;;;;29.93;29.56;100006.94;5015263;28;867;-61
2022/09/08 10:30:38;;;;;;;;;;;;;;;29.99;29.46;100006.91;5015279;28;874;-61
2022/09/08 10:33:28;;;;;;;;;;;;;;;29.95;29.06;100000.72;5015521;28;847;-61
2022/09/08 10:36:01;;;;;;;;;;;;;;;29.88;29.70;100009.88;5015120;28;843;-61
2022/09/08 10:38:46;;;;;;;;;;;;;;;29.95;29.38;100003.56;5015729;28;811;-61
2022/09/08 10:41:15;;;;;;;;;;;;;;;30.26;29.18;99996.50;5014977;28;898;-61
2022/09/08 10:43:45;;;;;;;;;;;;;;;30.50;28.97;99992.88;5014983;28;839;-61
2022/09/08 10:46:11;;;;;;;;;;;;;;;30.69;29.13;99992.88;5015130;28;846;-61
2022/09/08 10:49:07;;;;;;;;;;;;;;;30.84;28.06;99997.34;5015204;28;878;-61
2022/09/08 10:51:36;;;;;;;;;;;;;;;30.69;27.85;99990.03;5014899;28;846;-62
2022/09/08 10:54:10;;;;;;;;;;;;;;;30.62;28.31;99987.81;5014805;28;792;-61
2022/09/08 10:56:38;;;;;;;;;;;;;;;30.53;28.62;99982.47;5014805;28;815;-62
2022/09/08 10:59:11;;;;;;;;;;;;;;;30.47;27.82;99982.53;5014657;28;902;-61
2022/09/08 11:02:06;;;;;;;;;;;;;;;30.53;28.62;99977.53;5014554;28;1953;-61
2022/09/08 11:04:49;;;;;;;;;;;;;;;30.66;28.00;99981.78;5014441;28;922;-61
2022/09/08 11:07:18;;;;;;;;;;;;;;;30.86;28.47;99972.72;5014566;28;890;-62
2022/09/08 11:10:25;;;;;;;;;;;;;;;31.28;27.31;99973.09;5014767;28;874;-61
2022/09/08 11:12:57;;;;;;;;;;;;;;;31.20;27.55;99974.28;4953877;29;1338;-61
2022/09/08 11:15:47;;;;;;;;;;;;;;;31.28;27.44;99973.09;4937997;29;1367;-62
2022/09/08 11:18:32;;;;;;;;;;;;;;;31.51;26.70;99976.38;4981939;28;950;-62
2022/09/08 11:21:00;;;;;;;;;;;;;;;31.56;26.52;99969.03;4995077;28;853;-62
2022/09/08 11:23:34;;;;;;;;;;;;;;;31.50;26.10;99966.28;4994553;28;1910;-62
2022/09/08 11:26:03;;;;;;;;;;;;;;;31.60;26.14;99968.69;4994378;28;815;-62
2022/09/08 11:28:32;;;;;;;;;;;;;;;31.51;26.00;99964.19;4994538;28;838;-62
2022/09/08 11:31:06;;;;;;;;;;;;;;;31.78;25.71;99961.38;4995496;28;815;-62
2022/09/08 11:33:36;;;;;;;;;;;;;;;31.98;25.38;99960.75;4994491;28;839;-62
2022/09/08 11:36:35;;;;;;;;;;;;;;;32.03;25.28;99951.31;4994428;28;871;-62
2022/09/08 11:39:14;;;;;;;;;;;;;;;32.06;25.16;99944.47;4962125;28;1294;-61
2022/09/08 11:41:47;;;;;;;;;;;;;;;31.90;24.79;99946.34;4994289;28;1953;-62
2022/09/08 11:44:33;;;;;;;;;;;;;;;32.10;25.12;99944.91;4994305;28;808;-62
2022/09/08 11:50:14;;;;;;;;;;;;;;;32.04;28.11;99940.63;4994230;28;626;-64
2022/09/08 11:52:55;;;;;;;;;;;;;;;31.85;29.85;99941.47;4994516;28;800;-62
2022/09/08 11:55:38;;;;;;;;;;;;;;;31.92;30.52;99942.91;4994102;28;817;-62
2022/09/08 11:58:15;;;;;;;;;;;;;;;32.24;29.58;99945.69;4994026;28;847;-63
2022/09/08 12:03:57;;;;;;;;;;;;;;;32.09;29.71;99937.69;4993994;28;689;-63
2022/09/08 12:06:36;;;;;;;;;;;;;;;32.02;30.22;99929.00;4993819;28;876;-62
2022/09/08 12:09:09;;;;;;;;;;;;;;;32.31;30.24;99936.44;4993845;28;807;-62
2022/09/08 12:11:41;;;;;;;;;;;;;;;32.50;30.15;99926.94;4976750;28;1365;-63
2022/09/08 12:14:17;;;;;;;;;;;;;;;32.38;30.67;99926.41;4995793;28;882;-62
2022/09/08 12:16:53;;;;;;;;;;;;;;;32.39;30.27;99919.38;5013210;28;858;-63
2022/09/08 12:19:32;;;;;;;;;;;;;;;31.96;31.08;99917.63;5013521;28;803;-63
2022/09/08 12:22:31;;;;;;;;;;;;;;;32.09;31.13;99919.72;5013027;28;1902;-62
2022/09/08 12:25:04;;;;;;;;;;;;;;;32.17;31.32;99919.84;4971945;28;1121;-63
2022/09/08 12:27:39;;;;;;;;;;;;;;;31.94;30.95;99908.84;4972057;28;851;-62
2022/09/08 12:30:15;;;;;;;;;;;;;;;32.26;31.33;99917.31;4971759;28;1061;-63
2022/09/08 12:32:56;;;;;;;;;;;;;;;32.75;30.89;99911.06;4972035;28;902;-62
2022/09/08 12:35:40;;;;;;;;;;;;;;;32.45;30.43;99910.66;4972039;28;1127;-62
2022/09/08 12:38:25;;;;;;;;;;;;;;;32.52;30.11;99919.34;4971296;28;874;-63
2022/09/08 12:40:53;;;;;;;;;;;;;;;32.33;30.12;99916.63;4971734;28;1121;-63
2022/09/08 12:43:24;;;;;;;;;;;;;;;32.30;30.35;99914.88;4971877;28;1975;-63
2022/09/08 12:46:08;;;;;;;;;;;;;;;31.97;30.80;99916.31;4971963;28;859;-63
2022/09/08 12:49:07;;;;;;;;;;;;;;;31.79;31.58;99912.25;4955343;28;1501;-62
2022/09/08 12:51:35;;;;;;;;;;;;;;;31.52;32.34;99917.19;4971879;28;847;-63
2022/09/08 12:54:18;;;;;;;;;;;;;;;31.51;32.03;99924.19;4971490;28;1202;-62
2022/09/08 12:57:02;;;;;;;;;;;;;;;31.54;32.39;99915.31;4971777;28;867;-62
2022/09/08 12:59:37;;;;;;;;;;;;;;;31.47;32.29;99923.75;4971364;28;870;-63
2022/09/08 13:02:23;;;;;;;;;;;;;;;31.10;32.88;99917.59;5005081;28;1862;-62
2022/09/08 13:05:27;;;;;;;;;;;;;;;31.16;32.99;99928.16;5012490;28;830;-62
2022/09/08 13:07:58;;;;;;;;;;;;;;;31.22;33.37;99926.75;4971239;28;1108;-62
2022/09/08 13:10:32;;;;;;;;;;;;;;;31.25;33.39;99924.88;5005633;28;1205;-62
2022/09/08 13:13:20;;;;;;;;;;;;;;;31.32;33.73;99930.75;5000715;28;1425;-63
2022/09/08 13:16:06;;;;;;;;;;;;;;;31.13;33.32;99933.66;4992575;28;1261;-63
2022/09/08 13:18:50;;;;;;;;;;;;;;;31.07;34.01;99929.34;4992697;28;802;-63
2022/09/08 13:21:23;;;;;;;;;;;;;;;30.82;34.50;99923.72;4992515;28;819;-63
2022/09/08 13:24:02;;;;;;;;;;;;;;;30.77;34.60;99924.59;4992571;28;823;-63
2022/09/08 13:26:50;;;;;;;;;;;;;;;30.84;34.86;99923.19;4992981;28;823;-62
2022/09/08 13:29:25;;;;;;;;;;;;;;;30.50;34.78;99926.50;4992515;28;866;-63
2022/09/08 13:31:57;;;;;;;;;;;;;;;30.43;35.26;99930.75;4992473;28;877;-63
2022/09/08 13:34:33;;;;;;;;;;;;;;;30.79;34.69;99926.88;4992356;28;854;-63
2022/09/08 13:37:20;;;;;;;;;;;;;;;30.96;34.19;99923.78;4992450;28;779;-63
2022/09/08 13:40:14;;;;;;;;;;;;;;;30.69;34.53;99932.22;4992450;28;1200;-63
2022/09/08 13:42:59;;;;;;;;;;;;;;;30.25;35.37;99920.06;4992261;28;1957;-63
2022/09/08 13:45:40;;;;;;;;;;;;;;;29.91;35.62;99915.56;4992261;28;835;-63
2022/09/08 13:48:22;;;;;;;;;;;;;;;29.77;35.96;99919.59;4992199;28;878;-63
2022/09/08 13:51:01;;;;;;;;;;;;;;;29.82;35.98;99915.91;4992252;28;893;-63
2022/09/08 13:53:33;;;;;;;;;;;;;;;29.78;36.63;99923.22;4974630;28;1189;-63
2022/09/08 13:56:00;;;;;;;;;;;;;;;29.77;36.56;99918.84;4992206;28;842;-64